createdAt,value
2022-10-25T00:00:50.211Z,1.87
2022-10-25T00:03:18.388Z,1.40
2022-10-25T00:05:46.214Z,1.60
2022-10-25T00:08:13.892Z,2.03
2022-10-25T00:10:41.580Z,1.77
2022-10-25T00:13:09.555Z,1.97
2022-10-25T00:15:37.376Z,1.50
2022-10-25T00:18:05.277Z,1.83
2022-10-25T00:20:33.069Z,1.53
2022-10-25T00:23:00.763Z,1.77
2022-10-25T00:25:28.650Z,1.77
2022-10-25T00:27:56.437Z,1.77
2022-10-25T00:30:25.584Z,1.60
2022-10-25T00:32:53.593Z,1.80
2022-10-25T00:35:24.748Z,1.50
2022-10-25T00:37:52.414Z,1.57
2022-10-25T00:40:20.146Z,1.90
2022-10-25T00:42:50.186Z,1.60
2022-10-25T00:45:25.291Z,1.70
2022-10-25T00:48:01.023Z,1.50
2022-10-25T00:50:47.681Z,1.87
2022-10-25T00:53:22.175Z,1.57
2022-10-25T00:56:00.487Z,1.90
2022-10-25T00:58:31.366Z,1.53
2022-10-25T01:00:59.148Z,1.70
2022-10-25T01:03:27.112Z,1.50
2022-10-25T01:05:55.996Z,1.40
2022-10-25T01:08:24.894Z,1.70
2022-10-25T01:10:52.630Z,1.13
2022-10-25T01:13:20.643Z,1.50
2022-10-25T01:16:15.989Z,1.40
2022-10-25T01:19:08.663Z,1.50
2022-10-25T01:21:49.699Z,1.80
2022-10-25T01:24:33.234Z,1.30
2022-10-25T01:27:19.331Z,1.30
2022-10-25T01:30:06.816Z,1.40
2022-10-25T01:32:40.457Z,2.00
2022-10-25T01:35:22.817Z,1.43
2022-10-25T01:38:28.898Z,1.40
2022-10-25T01:41:08.503Z,2.10
2022-10-25T01:43:59.074Z,1.37
2022-10-25T01:46:48.168Z,1.40
2022-10-25T01:49:26.708Z,1.80
2022-10-25T01:51:54.503Z,1.60
2022-10-25T01:54:27.604Z,1.30
2022-10-25T01:57:21.171Z,1.67
2022-10-25T02:00:01.259Z,1.90
2022-10-25T02:02:37.258Z,1.10
2022-10-25T02:05:18.718Z,1.50
2022-10-25T02:08:15.302Z,1.30
2022-10-25T02:10:52.116Z,1.60
2022-10-25T02:13:53.192Z,1.37
2022-10-25T02:16:26.464Z,1.27
2022-10-25T02:19:01.168Z,1.30
2022-10-25T02:21:32.471Z,1.30
2022-10-25T02:24:05.028Z,1.73
2022-10-25T02:26:34.288Z,1.60
2022-10-25T02:29:04.870Z,1.40
2022-10-25T02:43:44.426Z,1.30
2022-10-25T02:46:20.149Z,1.30
2022-10-25T02:48:48.470Z,1.40
2022-10-25T02:51:16.279Z,1.50
2022-10-25T02:53:44.293Z,1.30
2022-10-25T02:56:15.222Z,1.50
2022-10-25T02:58:44.447Z,1.50
2022-10-25T03:01:13.460Z,1.80
2022-10-25T03:03:44.239Z,1.40
2022-10-25T03:06:12.567Z,1.60
2022-10-25T03:08:41.216Z,1.63
2022-10-25T03:11:10.104Z,1.33
2022-10-25T03:13:37.762Z,1.60
2022-10-25T03:16:05.835Z,1.27
2022-10-25T03:18:39.925Z,1.50
2022-10-25T03:21:07.846Z,1.60
2022-10-25T03:23:35.695Z,1.43
2022-10-25T03:26:03.351Z,1.50
2022-10-25T03:28:31.734Z,1.43
2022-10-25T03:31:00.063Z,1.57
2022-10-25T03:33:28.173Z,1.93
2022-10-25T03:35:57.971Z,1.37
2022-10-25T03:38:27.326Z,1.70
2022-10-25T03:40:54.916Z,2.50
2022-10-25T03:45:51.180Z,1.77
2022-10-25T03:48:25.069Z,1.50
2022-10-25T03:50:56.931Z,2.20
2022-10-25T03:53:24.678Z,3.63
2022-10-25T03:55:52.289Z,3.07
2022-10-25T03:58:20.452Z,3.00
2022-10-25T04:00:48.298Z,2.20
2022-10-25T04:03:16.237Z,1.60
2022-10-25T04:05:43.796Z,1.70
2022-10-25T04:08:11.332Z,1.93
2022-10-25T04:10:39.002Z,1.50
2022-10-25T04:13:06.561Z,1.80
2022-10-25T04:15:34.240Z,1.67
2022-10-25T04:18:01.800Z,1.70
2022-10-25T04:20:29.425Z,1.53
2022-10-25T04:22:57.834Z,1.77
2022-10-25T04:25:27.103Z,1.80
2022-10-25T04:27:55.089Z,2.60
2022-10-25T04:30:22.682Z,1.90
2022-10-25T04:32:50.730Z,1.50
2022-10-25T04:35:18.726Z,1.90
2022-10-25T04:37:46.336Z,1.80
2022-10-25T04:40:13.942Z,3.00
2022-10-25T04:42:41.576Z,1.93
2022-10-25T04:45:09.631Z,2.03
2022-10-25T04:47:37.216Z,1.80
2022-10-25T04:50:05.591Z,1.80
2022-10-25T04:52:33.287Z,2.00
2022-10-25T04:55:00.869Z,1.77
2022-10-25T04:57:28.435Z,2.20
2022-10-25T04:59:57.584Z,1.80
2022-10-25T05:02:25.478Z,2.27
2022-10-25T05:04:53.196Z,2.67
2022-10-25T05:07:21.163Z,3.73
2022-10-25T05:09:48.695Z,2.63
2022-10-25T05:12:16.344Z,2.30
2022-10-25T05:14:44.222Z,2.63
2022-10-25T05:17:11.782Z,1.90
2022-10-25T05:19:39.334Z,2.90
2022-10-25T05:22:07.178Z,2.67
2022-10-25T05:24:35.277Z,2.90
2022-10-25T05:27:04.853Z,2.83
2022-10-25T05:29:32.817Z,2.17
2022-10-25T05:32:01.270Z,2.43
2022-10-25T05:34:31.973Z,2.37
2022-10-25T05:36:59.926Z,2.70
2022-10-25T05:39:29.170Z,2.33
2022-10-25T05:41:56.977Z,2.70
2022-10-25T05:44:24.866Z,3.53
2022-10-25T05:46:52.393Z,2.17
2022-10-25T05:49:20.115Z,2.50
2022-10-25T05:51:47.782Z,2.10
2022-10-25T05:54:16.141Z,2.60
2022-10-25T05:56:43.905Z,2.47
2022-10-25T05:59:14.210Z,4.43
2022-10-25T06:01:44.185Z,2.40
2022-10-25T06:04:13.040Z,2.30
2022-10-25T06:06:42.262Z,1.73
2022-10-25T06:09:10.630Z,2.00
2022-10-25T06:11:38.902Z,2.30
2022-10-25T06:14:06.868Z,1.97
2022-10-25T06:16:34.462Z,1.73
2022-10-25T06:19:01.991Z,1.90
2022-10-25T06:21:30.408Z,1.90
2022-10-25T06:23:59.099Z,2.50
2022-10-25T06:26:28.684Z,2.30
2022-10-25T06:29:00.399Z,2.57
2022-10-25T06:31:29.354Z,3.17
2022-10-25T06:33:58.264Z,2.43
2022-10-25T06:36:27.701Z,1.97
2022-10-25T06:38:55.274Z,2.23
2022-10-25T06:41:27.547Z,2.20
2022-10-25T06:43:55.558Z,1.83
2022-10-25T06:46:30.051Z,2.50
2022-10-25T06:48:58.086Z,3.37
2022-10-25T06:51:27.686Z,2.80
2022-10-25T06:53:59.375Z,3.00
2022-10-25T06:56:28.756Z,3.00
2022-10-25T06:58:56.375Z,2.47
2022-10-25T07:01:25.930Z,2.80
2022-10-25T07:03:55.095Z,2.80
2022-10-25T07:06:29.321Z,3.07
2022-10-25T07:09:01.563Z,3.00
2022-10-25T07:11:31.488Z,2.83
2022-10-25T07:14:00.657Z,3.20
2022-10-25T07:16:28.832Z,2.70
2022-10-25T07:19:00.883Z,3.03
2022-10-25T07:21:32.366Z,3.03
2022-10-25T07:24:00.479Z,3.37
2022-10-25T07:26:31.215Z,3.37
2022-10-25T07:29:00.169Z,3.03
2022-10-25T07:31:33.821Z,2.90
2022-10-25T07:34:03.161Z,2.50
2022-10-25T07:36:30.789Z,3.10
2022-10-25T07:38:58.453Z,3.30
2022-10-25T07:41:26.555Z,2.93
2022-10-25T07:43:55.345Z,3.30
2022-10-25T07:46:23.597Z,3.00
2022-10-25T07:48:52.545Z,3.30
2022-10-25T07:51:20.294Z,3.23
2022-10-25T07:53:47.971Z,3.30
2022-10-25T07:56:22.152Z,3.00
2022-10-25T07:58:54.054Z,3.27
2022-10-25T08:01:24.385Z,3.37
2022-10-25T08:03:52.935Z,2.90
2022-10-25T08:06:22.139Z,3.27
2022-10-25T08:08:50.163Z,2.67
2022-10-25T08:11:18.118Z,3.30
2022-10-25T08:13:48.938Z,2.60
2022-10-25T08:16:16.894Z,2.60
2022-10-25T08:18:44.482Z,2.73
2022-10-25T08:21:12.142Z,2.90
2022-10-25T08:23:39.750Z,2.90
2022-10-25T08:26:07.373Z,2.90
2022-10-25T08:28:35.015Z,2.43
2022-10-25T08:31:04.187Z,2.53
2022-10-25T08:33:32.827Z,3.10
2022-10-25T08:36:02.244Z,2.50
2022-10-25T08:38:30.143Z,2.97
2022-10-25T08:41:17.961Z,3.03
2022-10-25T08:44:09.261Z,2.30
2022-10-25T08:47:02.968Z,2.67
2022-10-25T08:49:46.458Z,1.77
2022-10-25T08:52:42.758Z,2.90
2022-10-25T08:55:16.148Z,2.00
2022-10-25T08:57:47.011Z,2.37
2022-10-25T09:00:20.906Z,2.10
2022-10-25T09:02:55.337Z,1.70
2022-10-25T09:06:00.742Z,2.23
2022-10-25T09:08:57.737Z,2.63
2022-10-25T09:11:54.087Z,2.50
2022-10-25T09:14:30.374Z,2.07
2022-10-25T09:17:22.576Z,2.70
2022-10-25T09:20:08.636Z,1.90
2022-10-25T09:22:42.392Z,2.07
2022-10-25T09:25:19.889Z,1.70
2022-10-25T09:27:59.107Z,1.87
2022-10-25T09:30:28.703Z,1.80
2022-10-25T09:33:01.327Z,1.90
2022-10-25T09:35:40.898Z,2.30
2022-10-25T09:38:14.696Z,1.80
2022-10-25T09:40:48.160Z,2.03
2022-10-25T09:43:21.435Z,2.40
2022-10-25T09:45:51.789Z,1.95
2022-10-25T09:48:46.523Z,1.30
2022-10-25T09:51:38.387Z,1.50
2022-10-25T09:54:17.680Z,1.63
2022-10-25T09:56:45.269Z,1.67
2022-10-25T09:59:15.593Z,1.80
2022-10-25T10:01:43.535Z,1.83
2022-10-25T10:04:38.468Z,1.50
2022-10-25T10:07:11.796Z,1.63
2022-10-25T10:09:44.915Z,1.40
2022-10-25T10:12:31.616Z,1.60
2022-10-25T10:15:03.379Z,1.30
2022-10-25T10:17:31.511Z,1.50
2022-10-25T10:20:17.096Z,1.38
2022-10-25T10:22:51.613Z,1.75
2022-10-25T10:25:28.004Z,1.60
2022-10-25T10:27:57.794Z,1.70
2022-10-25T10:30:30.097Z,1.33
2022-10-25T10:33:01.711Z,1.48
2022-10-25T10:35:37.024Z,1.43
2022-10-25T10:38:19.754Z,1.52
2022-10-25T10:40:50.705Z,1.40
2022-10-25T10:43:31.295Z,1.87
2022-10-25T10:46:03.550Z,1.57
2022-10-25T10:54:29.506Z,1.83
2022-10-25T10:57:03.200Z,1.53
2022-10-25T10:59:55.548Z,1.80
2022-10-25T11:02:46.448Z,1.70
2022-10-25T11:05:27.989Z,1.70
2022-10-25T11:08:01.631Z,1.83
2022-10-25T11:10:32.771Z,1.70
2022-10-25T11:13:20.405Z,1.60
2022-10-25T11:16:21.093Z,1.95
2022-10-25T11:19:32.987Z,1.75
2022-10-25T11:22:16.108Z,1.80
2022-10-25T11:25:14.193Z,1.60
2022-10-25T11:27:59.681Z,1.70
2022-10-25T11:30:35.754Z,1.75
2022-10-25T11:33:29.838Z,1.40
2022-10-25T11:36:24.693Z,1.38
2022-10-25T11:39:26.643Z,1.50
2022-10-25T11:42:04.426Z,1.30
2022-10-25T11:45:05.353Z,0.98
2022-10-25T11:47:33.241Z,1.20
2022-10-25T11:50:26.863Z,1.20
2022-10-25T11:53:16.240Z,1.50
2022-10-25T11:56:22.557Z,1.30
2022-10-25T11:59:08.539Z,0.88
2022-10-25T12:02:03.490Z,0.98
2022-10-25T12:04:57.126Z,1.02
2022-10-25T12:07:36.741Z,1.10
2022-10-25T12:10:19.035Z,0.90
2022-10-25T12:13:27.051Z,0.80
2022-10-25T12:15:58.775Z,1.30
2022-10-25T12:18:45.502Z,4.75
2022-10-25T12:21:30.992Z,1.10
2022-10-25T12:24:01.634Z,0.90
2022-10-25T12:26:36.051Z,0.98
2022-10-25T12:29:10.735Z,1.05
2022-10-25T12:31:50.140Z,1.20
2022-10-25T12:34:35.254Z,1.10
2022-10-25T12:37:22.606Z,1.10
2022-10-25T12:39:54.303Z,0.90
2022-10-25T12:42:28.263Z,1.10
2022-10-25T12:45:30.472Z,0.75
2022-10-25T12:48:26.020Z,0.80
2022-10-25T12:51:06.501Z,0.70
2022-10-25T12:54:23.650Z,0.88
2022-10-25T12:57:20.706Z,0.80
2022-10-25T13:00:13.206Z,0.77
2022-10-25T13:02:50.552Z,0.70
2022-10-25T13:05:30.219Z,0.70
2022-10-25T13:08:32.698Z,0.55
2022-10-25T13:11:00.711Z,0.80
2022-10-25T13:13:34.166Z,0.65
2022-10-25T13:16:04.451Z,0.75
2022-10-25T13:18:34.324Z,0.98
2022-10-25T13:21:04.473Z,0.60
2022-10-25T13:23:51.476Z,2.75
2022-10-25T13:26:29.310Z,1.15
2022-10-25T13:29:03.156Z,1.02
2022-10-25T13:31:36.317Z,0.80
2022-10-25T13:34:17.739Z,1.00
2022-10-25T13:36:54.849Z,1.10
2022-10-25T13:39:31.218Z,2.30
2022-10-25T13:42:09.707Z,0.90
2022-10-25T13:44:56.459Z,0.77
2022-10-25T13:47:44.391Z,0.90
2022-10-25T13:50:18.001Z,0.93
2022-10-25T13:53:09.581Z,1.00
2022-10-25T13:55:47.349Z,3.92
2022-10-25T13:58:32.651Z,0.80
2022-10-25T14:01:27.155Z,0.70
2022-10-25T14:04:21.488Z,0.95
2022-10-25T14:07:41.198Z,0.80
2022-10-25T14:10:31.142Z,0.93
2022-10-25T14:13:12.415Z,1.00
2022-10-25T14:15:56.518Z,0.98
2022-10-25T14:18:26.046Z,0.90
2022-10-25T14:21:02.995Z,0.80
2022-10-25T14:23:43.567Z,0.80
2022-10-25T14:26:24.144Z,1.33
2022-10-25T14:28:56.408Z,0.80
2022-10-25T14:31:24.366Z,0.98
2022-10-25T14:34:06.659Z,0.95
2022-10-25T14:36:38.092Z,1.20
2022-10-25T14:39:24.210Z,1.00
2022-10-25T14:42:05.069Z,1.60
2022-10-25T14:44:53.486Z,1.00
2022-10-25T14:47:39.590Z,1.20
2022-10-25T14:50:30.210Z,1.27
2022-10-25T14:53:29.616Z,1.40
2022-10-25T15:03:56.860Z,1.08
2022-10-25T15:07:07.782Z,1.10
2022-10-25T15:09:56.188Z,1.17
2022-10-25T15:12:57.821Z,1.40
2022-10-25T15:18:47.235Z,1.23
2022-10-25T15:21:17.815Z,0.85
2022-10-25T15:24:14.688Z,1.10
2022-10-25T15:27:05.872Z,0.80
2022-10-25T15:29:43.976Z,0.85
2022-10-25T15:32:17.252Z,0.98
2022-10-25T15:34:50.120Z,1.25
2022-10-25T15:37:20.163Z,1.00
2022-10-25T15:39:50.174Z,0.80
2022-10-25T15:42:19.405Z,1.20
2022-10-25T15:44:56.813Z,0.98
2022-10-25T15:47:33.391Z,1.00
2022-10-25T15:50:04.785Z,1.08
2022-10-25T15:52:32.509Z,1.20
2022-10-25T15:55:00.244Z,1.20
2022-10-25T15:57:37.804Z,1.20
2022-10-25T16:00:05.936Z,1.48
2022-10-25T16:02:36.250Z,1.30
2022-10-25T16:05:09.158Z,1.43
2022-10-25T16:07:42.390Z,2.00
2022-10-25T16:10:11.512Z,1.23
2022-10-25T16:12:53.668Z,1.47
2022-10-25T16:15:24.866Z,1.80
2022-10-25T16:17:52.801Z,1.33
2022-10-25T16:20:28.778Z,1.20
2022-10-25T16:23:00.110Z,1.37
2022-10-25T16:25:38.291Z,1.50
2022-10-25T16:31:03.714Z,1.27
2022-10-25T16:33:37.587Z,2.20
2022-10-25T16:36:08.070Z,1.67
2022-10-25T16:38:35.879Z,1.47
2022-10-25T16:41:06.030Z,1.53
2022-10-25T16:43:33.883Z,1.60
2022-10-25T16:46:01.486Z,1.63
2022-10-25T16:48:37.613Z,1.60
2022-10-25T16:51:09.115Z,2.03
2022-10-25T16:53:37.089Z,2.30
2022-10-25T16:56:09.257Z,2.20
2022-10-25T16:58:40.461Z,2.53
2022-10-25T17:01:38.977Z,2.67
2022-10-25T17:04:10.803Z,4.07
2022-10-25T17:06:42.580Z,4.00
2022-10-25T17:09:10.989Z,3.13
2022-10-25T17:11:41.797Z,3.30
2022-10-25T17:14:15.157Z,2.93
2022-10-25T17:16:45.415Z,4.00
2022-10-25T17:19:15.350Z,3.27
2022-10-25T17:21:44.105Z,3.83
2022-10-25T17:24:16.317Z,3.63
2022-10-25T17:26:56.770Z,3.43
2022-10-25T17:29:24.811Z,3.30
2022-10-25T17:31:57.325Z,3.50
2022-10-25T17:34:26.340Z,3.60
2022-10-25T17:39:51.308Z,3.30
2022-10-25T17:42:21.558Z,3.63
2022-10-25T17:44:55.271Z,3.50
2022-10-25T17:47:23.185Z,5.80
2022-10-25T17:50:21.710Z,2.50
2022-10-25T17:52:53.402Z,2.80
2022-10-25T17:55:22.500Z,2.77
2022-10-25T17:57:53.730Z,2.23
2022-10-25T18:00:21.700Z,2.37
2022-10-25T18:02:57.161Z,3.63
2022-10-25T18:05:27.265Z,2.60
2022-10-25T18:07:57.162Z,2.80
2022-10-25T18:10:25.042Z,3.10
2022-10-25T18:13:23.232Z,3.37
2022-10-25T18:15:51.757Z,3.53
2022-10-25T18:18:19.702Z,3.50
2022-10-25T18:20:51.405Z,3.90
2022-10-25T18:23:19.743Z,4.20
2022-10-25T18:28:22.680Z,4.37
2022-10-25T18:30:50.626Z,5.30
2022-10-25T18:33:23.565Z,5.07
2022-10-25T18:36:24.823Z,4.53
2022-10-25T18:39:11.283Z,4.17
2022-10-25T18:41:40.921Z,3.77
2022-10-25T18:44:26.718Z,2.79
2022-10-25T18:47:04.858Z,2.65
2022-10-25T18:49:32.575Z,2.60
2022-10-25T18:52:00.840Z,2.70
2022-10-25T18:54:28.490Z,2.90
2022-10-25T18:56:56.328Z,2.70
2022-10-25T18:59:24.099Z,3.30
2022-10-25T19:02:11.425Z,3.60
2022-10-25T19:04:54.697Z,4.27
2022-10-25T19:07:42.705Z,3.80
2022-10-25T19:11:50.555Z,4.03
2022-10-25T19:13:07.832Z,3.80
2022-10-25T19:15:51.929Z,5.30
2022-10-25T19:18:19.874Z,5.07
2022-10-25T19:21:03.889Z,3.70
2022-10-25T19:23:36.458Z,3.30
2022-10-25T19:26:33.513Z,2.73
2022-10-25T19:29:32.331Z,3.40
2022-10-25T19:32:39.055Z,3.23
2022-10-25T19:35:02.536Z,3.83
2022-10-25T19:37:40.918Z,4.30
2022-10-25T19:40:14.268Z,4.37
2022-10-25T19:43:15.018Z,4.20
2022-10-25T19:48:54.644Z,3.67
2022-10-25T19:51:27.619Z,3.20
2022-10-25T19:53:59.313Z,2.83
2022-10-25T19:56:32.217Z,2.83
2022-10-25T19:59:02.221Z,2.97
2022-10-25T20:01:34.438Z,2.87
2022-10-25T20:04:04.051Z,2.87
2022-10-25T20:06:39.682Z,2.60
2022-10-25T20:09:25.645Z,2.57
2022-10-25T20:11:54.883Z,2.80
2022-10-25T20:14:24.953Z,3.23
2022-10-25T20:16:58.241Z,3.00
2022-10-25T20:19:26.056Z,3.43
2022-10-25T20:21:53.755Z,3.30
2022-10-25T20:24:21.499Z,3.77
2022-10-25T20:26:49.975Z,3.77
2022-10-25T20:29:25.230Z,3.50
2022-10-25T20:31:53.530Z,3.40
2022-10-25T20:34:22.635Z,3.47
2022-10-25T20:36:53.800Z,3.43
2022-10-25T20:39:22.998Z,4.37
2022-10-25T20:42:03.337Z,4.53
2022-10-25T20:44:33.376Z,3.73
2022-10-25T20:47:03.338Z,3.77
2022-10-25T20:49:36.836Z,3.97
2022-10-25T20:52:07.226Z,3.80
2022-10-25T20:57:22.653Z,3.87
2022-10-25T20:59:51.668Z,3.80
2022-10-25T21:02:21.166Z,4.00
2022-10-25T21:04:55.987Z,4.20
2022-10-25T21:07:29.237Z,4.07
2022-10-25T21:09:57.389Z,4.60
2022-10-25T21:12:25.771Z,4.47
2022-10-25T21:14:55.906Z,4.20
2022-10-25T21:17:28.009Z,3.90
2022-10-25T21:19:57.872Z,3.27
2022-10-25T21:22:25.514Z,3.63
2022-10-25T21:24:53.086Z,3.70
2022-10-25T21:27:20.714Z,3.80
2022-10-25T21:29:48.330Z,3.57
2022-10-25T21:32:15.929Z,3.53
2022-10-25T21:34:43.583Z,2.97
2022-10-25T21:37:11.192Z,2.80
2022-10-25T21:39:38.760Z,2.90
2022-10-25T21:42:06.438Z,3.43
2022-10-25T21:44:34.347Z,2.87
2022-10-25T21:47:01.906Z,3.00
2022-10-25T21:49:29.600Z,3.23
2022-10-25T21:51:57.238Z,3.20
2022-10-25T21:54:25.209Z,3.00
2022-10-25T21:56:53.193Z,3.10
2022-10-25T21:59:21.654Z,3.30
2022-10-25T22:01:49.598Z,3.10
2022-10-25T22:04:17.469Z,3.27
2022-10-25T22:06:45.115Z,3.57
2022-10-25T22:09:12.769Z,2.90
2022-10-25T22:11:40.476Z,3.03
2022-10-25T22:14:13.830Z,2.90
2022-10-25T22:16:41.435Z,2.83
2022-10-25T22:19:15.823Z,2.53
2022-10-25T22:21:44.542Z,3.00
2022-10-25T22:24:13.312Z,2.67
2022-10-25T22:26:43.018Z,2.70
2022-10-25T22:29:12.561Z,2.63
2022-10-25T22:31:40.546Z,2.73
2022-10-25T22:34:09.598Z,2.50
2022-10-25T22:36:39.485Z,2.60
2022-10-25T22:39:08.336Z,2.40
2022-10-25T22:41:36.215Z,2.23
2022-10-25T22:44:04.254Z,2.90
2022-10-25T22:46:34.825Z,2.37
2022-10-25T22:49:08.061Z,2.40
2022-10-25T22:51:36.705Z,2.70
2022-10-25T22:54:04.837Z,2.67
2022-10-25T22:56:33.102Z,3.17
2022-10-25T22:59:02.884Z,2.57
2022-10-25T23:01:33.091Z,3.40
2022-10-25T23:04:03.832Z,3.03
2022-10-25T23:06:34.152Z,2.57
2022-10-25T23:09:05.711Z,3.00
2022-10-25T23:11:35.469Z,2.60
2022-10-25T23:14:03.609Z,2.90
2022-10-25T23:16:31.410Z,2.67
2022-10-25T23:18:59.055Z,2.77
2022-10-25T23:21:29.922Z,3.10
2022-10-25T23:23:59.657Z,2.80
2022-10-25T23:26:31.995Z,2.87
2022-10-25T23:29:00.645Z,2.80
2022-10-25T23:31:29.155Z,2.87
2022-10-25T23:33:58.663Z,2.67
2022-10-25T23:36:29.191Z,3.00
2022-10-25T23:38:58.117Z,3.17
2022-10-25T23:41:25.846Z,2.80
2022-10-25T23:43:53.475Z,2.80
2022-10-25T23:46:21.211Z,3.10
2022-10-25T23:48:49.404Z,3.40
2022-10-25T23:51:18.370Z,5.67
2022-10-25T23:53:46.050Z,5.90
2022-10-25T23:56:14.503Z,3.63
2022-10-25T23:58:42.179Z,3.50
